createdAt,value
2022-09-30T00:05:32.996Z,24.60
2022-09-30T00:12:04.931Z,16.90
2022-09-30T00:17:59.639Z,17.00
2022-09-30T00:23:53.586Z,20.10
2022-09-30T00:30:39.952Z,22.60
2022-09-30T00:37:17.272Z,23.10
2022-09-30T00:44:08.514Z,23.60
2022-09-30T00:50:13.814Z,19.90
2022-09-30T00:56:27.233Z,22.10
2022-09-30T01:02:54.831Z,20.50
2022-09-30T01:08:58.577Z,23.00
2022-09-30T01:15:25.234Z,23.10
2022-09-30T01:22:18.723Z,27.60
2022-09-30T01:29:15.382Z,22.90
2022-09-30T01:35:58.603Z,22.70
2022-09-30T01:42:58.672Z,28.10
2022-09-30T01:49:58.057Z,22.00
2022-09-30T01:56:50.043Z,24.50
2022-09-30T02:03:41.456Z,26.40
2022-09-30T02:10:50.974Z,25.00
2022-09-30T02:17:56.917Z,20.30
2022-09-30T02:25:00.232Z,24.50
2022-09-30T02:31:25.215Z,21.60
2022-09-30T02:38:20.416Z,23.80
2022-09-30T02:45:05.212Z,19.90
2022-09-30T02:52:30.422Z,17.70
2022-09-30T02:59:34.279Z,23.60
2022-09-30T03:06:26.327Z,18.90
2022-09-30T03:13:03.259Z,20.10
2022-09-30T03:20:12.580Z,17.60
2022-09-30T03:26:50.442Z,19.90
2022-09-30T03:33:49.632Z,19.60
2022-09-30T03:40:26.841Z,21.30
2022-09-30T03:47:10.263Z,15.40
2022-09-30T03:54:08.844Z,22.20
2022-09-30T04:00:05.293Z,25.10
2022-09-30T04:05:30.751Z,18.40
2022-09-30T04:11:33.647Z,18.70
2022-09-30T04:18:23.064Z,21.60
2022-09-30T04:24:40.040Z,18.10
2022-09-30T04:31:32.680Z,19.40
2022-09-30T04:37:17.651Z,15.80
2022-09-30T04:42:51.473Z,21.60
2022-09-30T04:48:01.720Z,20.60
2022-09-30T04:53:47.263Z,20.30
2022-09-30T04:59:00.918Z,20.70
2022-09-30T05:04:36.603Z,22.00
2022-09-30T05:10:12.032Z,18.90
2022-09-30T05:16:25.552Z,21.20
2022-09-30T05:22:29.907Z,19.90
2022-09-30T05:28:41.268Z,16.60
2022-09-30T05:35:14.665Z,19.90
2022-09-30T05:40:43.288Z,19.20
2022-09-30T05:46:57.348Z,17.70
2022-09-30T05:53:18.964Z,18.70
2022-09-30T05:59:49.943Z,15.80
2022-09-30T06:05:12.864Z,16.90
2022-09-30T06:11:49.628Z,20.50
2022-09-30T06:17:06.907Z,20.40
2022-09-30T06:22:49.860Z,18.40
2022-09-30T06:28:23.644Z,21.50
2022-09-30T06:33:51.625Z,22.50
2022-09-30T06:40:40.975Z,88.40
2022-09-30T06:46:53.092Z,19.30
2022-09-30T06:53:05.549Z,22.70
2022-09-30T06:58:13.498Z,22.40
2022-09-30T07:03:49.354Z,20.40
2022-09-30T07:09:22.915Z,21.80
2022-09-30T07:14:36.040Z,18.20
2022-09-30T07:20:21.743Z,22.30
2022-09-30T07:26:50.730Z,18.60
2022-09-30T07:32:26.220Z,20.30
2022-09-30T07:38:30.161Z,20.10
2022-09-30T07:44:22.190Z,16.90
2022-09-30T07:49:46.776Z,19.30
2022-09-30T07:55:49.920Z,16.00
2022-09-30T08:01:42.110Z,18.90
2022-09-30T08:07:47.708Z,18.00
2022-09-30T08:14:15.438Z,21.60
2022-09-30T08:19:51.768Z,20.90
2022-09-30T08:25:23.298Z,21.60
2022-09-30T08:30:25.512Z,23.00
2022-09-30T08:36:00.388Z,21.20
2022-09-30T08:41:14.530Z,25.70
2022-09-30T08:47:07.601Z,23.20
2022-09-30T08:52:55.453Z,20.40
2022-09-30T08:58:47.804Z,22.80
2022-09-30T09:04:21.272Z,22.20
2022-09-30T09:10:13.359Z,27.20
2022-09-30T09:16:37.108Z,24.80
2022-09-30T09:22:25.950Z,25.10
2022-09-30T09:28:38.571Z,27.30
2022-09-30T09:33:52.841Z,26.70
2022-09-30T09:39:51.901Z,26.70
2022-09-30T09:45:59.918Z,29.90
2022-09-30T09:51:41.013Z,23.10
2022-09-30T09:57:51.417Z,24.10
2022-09-30T10:03:22.078Z,19.40
2022-09-30T10:08:49.855Z,22.60
2022-09-30T10:14:42.676Z,26.00
2022-09-30T10:20:24.313Z,27.00
2022-09-30T10:25:46.261Z,23.60
2022-09-30T10:30:58.088Z,22.30
2022-09-30T10:36:21.324Z,22.80
2022-09-30T10:41:51.957Z,21.30
2022-09-30T10:47:07.317Z,20.70
2022-09-30T10:52:33.118Z,21.40
2022-09-30T10:57:41.760Z,25.80
2022-09-30T11:03:21.222Z,22.70
2022-09-30T11:08:45.708Z,17.30
2022-09-30T11:14:30.545Z,16.10
2022-09-30T11:20:12.320Z,14.00
2022-09-30T11:26:24.198Z,14.50
2022-09-30T11:32:35.934Z,10.70
2022-09-30T11:38:39.268Z,9.70
2022-09-30T11:44:08.035Z,12.90
2022-09-30T11:50:01.119Z,13.10
2022-09-30T11:55:37.278Z,12.60
2022-09-30T12:01:34.575Z,10.90
2022-09-30T12:06:47.884Z,10.80
2022-09-30T12:11:57.395Z,9.90
2022-09-30T12:22:41.110Z,9.80
2022-09-30T12:27:54.496Z,10.10
2022-09-30T12:33:31.087Z,10.00
2022-09-30T12:38:55.397Z,9.10
2022-09-30T12:44:05.906Z,12.60
2022-09-30T12:49:15.756Z,9.00
2022-09-30T12:54:50.081Z,13.50
2022-09-30T13:00:01.198Z,8.90
2022-09-30T13:05:34.941Z,12.80
2022-09-30T13:11:31.888Z,12.20
2022-09-30T13:17:55.670Z,15.80
2022-09-30T13:23:39.928Z,12.20
2022-09-30T13:28:45.716Z,15.40
2022-09-30T13:34:21.872Z,22.50
2022-09-30T13:40:03.851Z,13.10
2022-09-30T13:45:21.795Z,13.20
2022-09-30T13:50:28.212Z,14.50
2022-09-30T13:55:47.663Z,13.50
2022-09-30T14:01:47.292Z,12.80
2022-09-30T14:07:55.787Z,11.80
2022-09-30T14:14:37.160Z,13.00
2022-09-30T14:21:00.468Z,8.50
2022-09-30T14:27:06.100Z,12.30
2022-09-30T14:32:35.475Z,11.50
2022-09-30T14:38:29.535Z,12.80
2022-09-30T14:44:14.325Z,10.90
2022-09-30T14:49:28.630Z,11.90
2022-09-30T14:54:33.968Z,13.20
2022-09-30T14:59:47.022Z,12.20
2022-09-30T15:05:00.441Z,14.20
2022-09-30T15:10:06.448Z,16.10
2022-09-30T15:15:40.649Z,17.20
2022-09-30T15:20:44.326Z,16.80
2022-09-30T15:25:52.246Z,15.70
2022-09-30T15:30:58.509Z,18.00
2022-09-30T15:36:34.655Z,21.40
2022-09-30T15:41:42.376Z,18.90
2022-09-30T15:47:29.287Z,19.00
2022-09-30T15:53:05.496Z,17.70
2022-09-30T15:59:00.578Z,19.30
2022-09-30T16:04:06.652Z,17.40
2022-09-30T16:09:21.263Z,20.50
2022-09-30T16:14:32.797Z,19.00
2022-09-30T16:19:35.927Z,24.90
2022-09-30T16:24:43.344Z,25.70
2022-09-30T16:30:06.922Z,27.00
2022-09-30T16:35:18.309Z,32.20
2022-09-30T16:40:55.063Z,28.90
2022-09-30T16:46:22.524Z,24.30
2022-09-30T16:51:39.166Z,23.70
2022-09-30T16:57:14.845Z,27.00
2022-09-30T17:02:22.907Z,42.50
2022-09-30T17:07:27.414Z,29.90
2022-09-30T17:12:32.376Z,27.00
2022-09-30T17:17:47.827Z,33.00
2022-09-30T17:22:57.546Z,28.60
2022-09-30T17:28:01.451Z,30.90
2022-09-30T17:33:10.138Z,28.90
2022-09-30T17:38:15.656Z,27.60
2022-09-30T17:43:26.476Z,36.00
2022-09-30T17:48:34.866Z,31.10
2022-09-30T17:53:38.546Z,23.20
2022-09-30T17:58:43.245Z,33.90
2022-09-30T18:03:53.666Z,38.40
2022-09-30T18:09:16.464Z,28.00
2022-09-30T18:14:20.585Z,32.40
2022-09-30T18:19:24.500Z,36.00
2022-09-30T18:24:48.409Z,30.70
2022-09-30T18:29:54.595Z,31.10
2022-09-30T18:34:58.427Z,26.10
2022-09-30T18:40:04.814Z,40.90
2022-09-30T18:45:09.596Z,40.70
2022-09-30T18:50:16.290Z,41.60
2022-09-30T18:55:22.932Z,35.60
2022-09-30T19:00:34.935Z,40.40
2022-09-30T19:05:50.666Z,37.40
2022-09-30T19:10:56.035Z,40.20
2022-09-30T19:16:11.455Z,40.60
2022-09-30T19:21:17.677Z,42.20
2022-09-30T19:26:20.138Z,42.40
2022-09-30T19:31:45.016Z,41.80
2022-09-30T19:37:00.839Z,33.20
2022-09-30T19:42:06.264Z,36.30
2022-09-30T19:47:17.100Z,32.20
2022-09-30T19:52:51.955Z,27.70
2022-09-30T19:58:02.641Z,37.90
2022-09-30T20:03:08.634Z,33.40
2022-09-30T20:08:13.536Z,35.40
2022-09-30T20:13:17.344Z,34.00
2022-09-30T20:18:22.228Z,28.00
2022-09-30T20:23:25.391Z,33.10
2022-09-30T20:28:31.816Z,29.40
2022-09-30T20:33:37.172Z,25.80
2022-09-30T20:38:40.514Z,30.20
2022-09-30T20:44:13.625Z,32.00
2022-09-30T20:49:19.384Z,27.30
2022-09-30T20:54:35.581Z,27.00
2022-09-30T21:00:06.692Z,32.50
2022-09-30T21:05:32.047Z,31.60
2022-09-30T21:10:37.372Z,26.20
2022-09-30T21:16:01.185Z,31.10
2022-09-30T21:21:20.114Z,27.20
2022-09-30T21:26:23.697Z,29.30
2022-09-30T21:31:47.355Z,32.50
2022-09-30T21:37:02.916Z,27.30
2022-09-30T21:42:08.305Z,29.80
2022-09-30T21:47:33.535Z,20.30
2022-09-30T21:53:00.056Z,29.30
2022-09-30T21:58:02.461Z,27.30
2022-09-30T22:03:05.672Z,30.40
2022-09-30T22:08:33.324Z,26.30
2022-09-30T22:13:36.460Z,28.80
2022-09-30T22:18:39.278Z,26.90
2022-09-30T22:23:43.467Z,26.80
2022-09-30T22:28:48.276Z,26.40
2022-09-30T22:34:13.272Z,24.70
2022-09-30T22:39:18.551Z,26.20
2022-09-30T22:44:26.398Z,30.60
2022-09-30T22:49:32.512Z,25.30
2022-09-30T22:54:36.656Z,28.80
2022-09-30T22:59:38.949Z,29.30
2022-09-30T23:04:45.584Z,27.10
2022-09-30T23:09:51.192Z,30.80
2022-09-30T23:15:01.248Z,27.00
2022-09-30T23:20:08.674Z,32.60
2022-09-30T23:25:32.739Z,32.00
2022-09-30T23:30:38.430Z,37.90
2022-09-30T23:35:49.489Z,35.30
2022-09-30T23:40:55.744Z,34.60
2022-09-30T23:45:58.575Z,31.80
2022-09-30T23:51:08.382Z,34.60
2022-09-30T23:57:12.883Z,42.70
